North Falmouth, Massachusetts
Current Conditions -  °F | °C
As of 11:15 PM on Wednesday 17 Dec 2014 (Local Time) from KFMH Reporting Station
Overcast Overcast  
Wind Chill: 37°   Ceiling: 5500
Heat Index: 43°   Visibility: 10mi
Dew Point: 36°   Wind: 10mph
Humidity: 76%   Direction: 280°W
Pressure: 29.73"   Gusts: 16mph
Location:  41.64°N, 70.63°W
Report Text: KFMH 180415Z AUTO 28009G14KT 10SM SCT041 OVC055 06/02 A2973 RMK AO2
Loading
Personal Weather Stations






























Interactive Weather Map New forecast layout! Learn more

10-Day Weather Forecast

Advertisements
Track Severe Weather on mobile